IBB1065 GCHI-LPMA
Flight info
| Callsign | IBB1065 |
|---|---|
| Flight time | 1h 14m |
| Altitude | 22000 |
| Route | TFN N602 KASAS N729 BIMBO Q142 BIGPI |
| Aircraft | AT76/M-VGDW/C |
Departure
| Time | 2026-05-07 10:17 |
|---|---|
| Airport | El Hierro Airport (GCHI) |
Arrival
| Time | 2026-05-07 11:31 |
|---|---|
| Airport | Cristiano Ronaldo International Airport (LPMA) |
| Time | Latitude | Longitude | Altitude | Speed | Heading |
|---|---|---|---|---|---|
| 2026-05-07 10:05 | 27.81345 | -17.88532 | 101 ft | 0 kts | 332° |
| 2026-05-07 10:13 | 27.81357 | -17.88542 | 101 ft | 5 kts | 313° |
| 2026-05-07 10:13 | 27.81350 | -17.88588 | 101 ft | 7 kts | 241° |
| 2026-05-07 10:14 | 27.81317 | -17.88602 | 102 ft | 5 kts | 163° |
| 2026-05-07 10:14 | 27.81288 | -17.88586 | 101 ft | 5 kts | 154° |
| 2026-05-07 10:14 | 27.81209 | -17.88540 | 101 ft | 16 kts | 152° |
| 2026-05-07 10:14 | 27.81123 | -17.88489 | 102 ft | 12 kts | 152° |
| 2026-05-07 10:15 | 27.81061 | -17.88452 | 103 ft | 9 kts | 153° |
| 2026-05-07 10:15 | 27.81005 | -17.88450 | 102 ft | 7 kts | 173° |
| 2026-05-07 10:15 | 27.80981 | -17.88425 | 100 ft | 3 kts | 89° |
| 2026-05-07 10:15 | 27.80993 | -17.88416 | 100 ft | 3 kts | 8° |
| 2026-05-07 10:16 | 27.81024 | -17.88431 | 102 ft | 14 kts | 332° |
| 2026-05-07 10:16 | 27.81303 | -17.88596 | 102 ft | 75 kts | 332° |
| 2026-05-07 10:16 | 27.81953 | -17.88979 | 75 ft | 133 kts | 333° |
| 2026-05-07 10:16 | 27.82798 | -17.89491 | 537 ft | 140 kts | 330° |
| 2026-05-07 10:17 | 27.83651 | -17.90100 | 1091 ft | 149 kts | 329° |
| 2026-05-07 10:17 | 27.84542 | -17.90779 | 1762 ft | 158 kts | 326° |
| 2026-05-07 10:17 | 27.85538 | -17.91030 | 2446 ft | 150 kts | 26° |
| 2026-05-07 10:17 | 27.86203 | -17.90157 | 3023 ft | 153 kts | 70° |
| 2026-05-07 10:18 | 27.86597 | -17.88991 | 3545 ft | 165 kts | 69° |
| 2026-05-07 10:18 | 27.86858 | -17.88162 | 3907 ft | 172 kts | 71° |
| 2026-05-07 10:18 | 27.87315 | -17.86884 | 4456 ft | 180 kts | 63° |
| 2026-05-07 10:18 | 27.87897 | -17.85599 | 5011 ft | 188 kts | 61° |
| 2026-05-07 10:19 | 27.88715 | -17.83814 | 5749 ft | 198 kts | 62° |
| 2026-05-07 10:19 | 27.89352 | -17.82395 | 6316 ft | 205 kts | 62° |
| 2026-05-07 10:19 | 27.89780 | -17.81404 | 6672 ft | 210 kts | 63° |
| 2026-05-07 10:19 | 27.90415 | -17.79911 | 7216 ft | 216 kts | 63° |
| 2026-05-07 10:20 | 27.91071 | -17.78360 | 7744 ft | 221 kts | 63° |
| 2026-05-07 10:20 | 27.91740 | -17.76775 | 8291 ft | 225 kts | 62° |
| 2026-05-07 10:20 | 27.92416 | -17.75166 | 8836 ft | 228 kts | 62° |
| 2026-05-07 10:20 | 27.93103 | -17.73538 | 9415 ft | 230 kts | 62° |
| 2026-05-07 10:21 | 27.93794 | -17.71895 | 9984 ft | 232 kts | 62° |
| 2026-05-07 10:21 | 27.94492 | -17.70240 | 10497 ft | 234 kts | 62° |
| 2026-05-07 10:21 | 27.95186 | -17.68593 | 11013 ft | 236 kts | 62° |
| 2026-05-07 10:21 | 27.95897 | -17.66910 | 11542 ft | 238 kts | 62° |
| 2026-05-07 10:22 | 27.96609 | -17.65220 | 12081 ft | 239 kts | 62° |
| 2026-05-07 10:22 | 27.97326 | -17.63511 | 12625 ft | 240 kts | 62° |
| 2026-05-07 10:22 | 27.98045 | -17.61799 | 13179 ft | 241 kts | 62° |
| 2026-05-07 10:22 | 27.98767 | -17.60082 | 13743 ft | 242 kts | 62° |
| 2026-05-07 10:23 | 27.99491 | -17.58358 | 14264 ft | 242 kts | 62° |
| 2026-05-07 10:23 | 28.00219 | -17.56625 | 14737 ft | 245 kts | 62° |
| 2026-05-07 10:23 | 28.00953 | -17.54878 | 15196 ft | 247 kts | 62° |
| 2026-05-07 10:23 | 28.01692 | -17.53111 | 15671 ft | 248 kts | 62° |
| 2026-05-07 10:24 | 28.02422 | -17.51369 | 16150 ft | 248 kts | 62° |
| 2026-05-07 10:24 | 28.03164 | -17.49597 | 16643 ft | 248 kts | 62° |
| 2026-05-07 10:24 | 28.03903 | -17.47834 | 17141 ft | 248 kts | 62° |
| 2026-05-07 10:24 | 28.04642 | -17.46069 | 17648 ft | 247 kts | 62° |
| 2026-05-07 10:25 | 28.05378 | -17.44311 | 18165 ft | 246 kts | 62° |
| 2026-05-07 10:25 | 28.06096 | -17.42594 | 18633 ft | 244 kts | 62° |
| 2026-05-07 10:25 | 28.06818 | -17.40865 | 19086 ft | 241 kts | 62° |
| 2026-05-07 10:25 | 28.07535 | -17.39150 | 19558 ft | 238 kts | 62° |
| 2026-05-07 10:26 | 28.08244 | -17.37451 | 19964 ft | 240 kts | 62° |
| 2026-05-07 10:26 | 28.08972 | -17.35708 | 20212 ft | 249 kts | 62° |
| 2026-05-07 10:26 | 28.09725 | -17.33901 | 20452 ft | 257 kts | 62° |
| 2026-05-07 10:26 | 28.10488 | -17.32065 | 20703 ft | 264 kts | 62° |
| 2026-05-07 10:27 | 28.11282 | -17.30157 | 20957 ft | 271 kts | 62° |
| 2026-05-07 10:27 | 28.12097 | -17.28196 | 21199 ft | 278 kts | 62° |
| 2026-05-07 10:27 | 28.12931 | -17.26196 | 21443 ft | 283 kts | 62° |
| 2026-05-07 10:27 | 28.13775 | -17.24165 | 21685 ft | 286 kts | 62° |
| 2026-05-07 10:28 | 28.14630 | -17.22107 | 21900 ft | 292 kts | 63° |
| 2026-05-07 10:28 | 28.15502 | -17.20001 | 21943 ft | 299 kts | 63° |
| 2026-05-07 10:28 | 28.16401 | -17.17840 | 22027 ft | 306 kts | 62° |
| 2026-05-07 10:28 | 28.17318 | -17.15628 | 22045 ft | 314 kts | 63° |
| 2026-05-07 10:29 | 28.18257 | -17.13359 | 22053 ft | 321 kts | 63° |
| 2026-05-07 10:29 | 28.19219 | -17.11044 | 22053 ft | 327 kts | 63° |
| 2026-05-07 10:29 | 28.20192 | -17.08691 | 22054 ft | 332 kts | 63° |
| 2026-05-07 10:30 | 28.22164 | -17.03927 | 22066 ft | 339 kts | 63° |
| 2026-05-07 10:30 | 28.23168 | -17.01498 | 22068 ft | 341 kts | 63° |
| 2026-05-07 10:30 | 28.24182 | -16.99048 | 22068 ft | 343 kts | 63° |
| 2026-05-07 10:30 | 28.25194 | -16.96590 | 22068 ft | 345 kts | 63° |
| 2026-05-07 10:31 | 28.26215 | -16.94120 | 22066 ft | 346 kts | 63° |
| 2026-05-07 10:31 | 28.27240 | -16.91634 | 22068 ft | 348 kts | 63° |
| 2026-05-07 10:31 | 28.28265 | -16.89149 | 22069 ft | 349 kts | 63° |
| 2026-05-07 10:31 | 28.29294 | -16.86655 | 22070 ft | 349 kts | 63° |
| 2026-05-07 10:32 | 28.30306 | -16.84186 | 22069 ft | 349 kts | 63° |
| 2026-05-07 10:32 | 28.31339 | -16.81677 | 22074 ft | 351 kts | 63° |
| 2026-05-07 10:32 | 28.32373 | -16.79171 | 22073 ft | 351 kts | 63° |
| 2026-05-07 10:32 | 28.33403 | -16.76658 | 22069 ft | 351 kts | 63° |
| 2026-05-07 10:33 | 28.34441 | -16.74134 | 22076 ft | 351 kts | 63° |
| 2026-05-07 10:33 | 28.35472 | -16.71618 | 22065 ft | 351 kts | 63° |
| 2026-05-07 10:33 | 28.36508 | -16.69097 | 22073 ft | 351 kts | 63° |
| 2026-05-07 10:33 | 28.37525 | -16.66611 | 22077 ft | 352 kts | 64° |
| 2026-05-07 10:34 | 28.38557 | -16.64093 | 22075 ft | 352 kts | 64° |
| 2026-05-07 10:34 | 28.39592 | -16.61563 | 22081 ft | 353 kts | 64° |
| 2026-05-07 10:34 | 28.40628 | -16.59030 | 22071 ft | 353 kts | 64° |
| 2026-05-07 10:34 | 28.41665 | -16.56495 | 22070 ft | 353 kts | 64° |
| 2026-05-07 10:35 | 28.42701 | -16.53963 | 22073 ft | 353 kts | 64° |
| 2026-05-07 10:35 | 28.43734 | -16.51428 | 22074 ft | 353 kts | 64° |
| 2026-05-07 10:35 | 28.44771 | -16.48891 | 22074 ft | 353 kts | 64° |
| 2026-05-07 10:35 | 28.45804 | -16.46353 | 22078 ft | 353 kts | 64° |
| 2026-05-07 10:36 | 28.46839 | -16.43818 | 22079 ft | 354 kts | 64° |
| 2026-05-07 10:36 | 28.47872 | -16.41281 | 22079 ft | 354 kts | 64° |
| 2026-05-07 10:36 | 28.48908 | -16.38734 | 22072 ft | 355 kts | 64° |
| 2026-05-07 10:36 | 28.49946 | -16.36185 | 22064 ft | 355 kts | 64° |
| 2026-05-07 10:37 | 28.50966 | -16.33672 | 22082 ft | 355 kts | 64° |
| 2026-05-07 10:37 | 28.52017 | -16.31094 | 22078 ft | 355 kts | 64° |
| 2026-05-07 10:37 | 28.53082 | -16.28612 | 22073 ft | 351 kts | 56° |
| 2026-05-07 10:37 | 28.54740 | -16.26644 | 22085 ft | 341 kts | 28° |
| 2026-05-07 10:38 | 28.56871 | -16.25564 | 22078 ft | 331 kts | 10° |
| 2026-05-07 10:38 | 28.59092 | -16.24913 | 22078 ft | 329 kts | 7° |
| 2026-05-07 10:38 | 28.61328 | -16.24299 | 22080 ft | 330 kts | 7° |
| 2026-05-07 10:38 | 28.63529 | -16.23616 | 22077 ft | 332 kts | 10° |
| 2026-05-07 10:39 | 28.65749 | -16.22843 | 22073 ft | 333 kts | 11° |
| 2026-05-07 10:39 | 28.67969 | -16.22069 | 22078 ft | 334 kts | 11° |
| 2026-05-07 10:39 | 28.70199 | -16.21310 | 22075 ft | 334 kts | 10° |
| 2026-05-07 10:39 | 28.72428 | -16.20553 | 22071 ft | 334 kts | 10° |
| 2026-05-07 10:40 | 28.74660 | -16.19791 | 22074 ft | 334 kts | 11° |
| 2026-05-07 10:40 | 28.76891 | -16.19031 | 22071 ft | 334 kts | 10° |
| 2026-05-07 10:40 | 28.79122 | -16.18270 | 22077 ft | 335 kts | 11° |
| 2026-05-07 10:40 | 28.81332 | -16.17514 | 22076 ft | 335 kts | 10° |
| 2026-05-07 10:41 | 28.83564 | -16.16752 | 22073 ft | 335 kts | 10° |
| 2026-05-07 10:41 | 28.85796 | -16.15985 | 22080 ft | 335 kts | 10° |
| 2026-05-07 10:41 | 28.88035 | -16.15222 | 22076 ft | 336 kts | 10° |
| 2026-05-07 10:41 | 28.90280 | -16.14454 | 22075 ft | 336 kts | 10° |
| 2026-05-07 10:42 | 28.92518 | -16.13689 | 22076 ft | 336 kts | 10° |
| 2026-05-07 10:42 | 28.94757 | -16.12921 | 22075 ft | 336 kts | 10° |
| 2026-05-07 10:42 | 28.96994 | -16.12155 | 22076 ft | 336 kts | 10° |
| 2026-05-07 10:42 | 28.99235 | -16.11384 | 22074 ft | 336 kts | 10° |
| 2026-05-07 10:43 | 29.01483 | -16.10612 | 22074 ft | 336 kts | 10° |
| 2026-05-07 10:43 | 29.03721 | -16.09846 | 22074 ft | 336 kts | 10° |
| 2026-05-07 10:43 | 29.05933 | -16.09085 | 22075 ft | 336 kts | 10° |
| 2026-05-07 10:43 | 29.08172 | -16.08317 | 22075 ft | 336 kts | 10° |
| 2026-05-07 10:44 | 29.10411 | -16.07545 | 22078 ft | 336 kts | 10° |
| 2026-05-07 10:44 | 29.12660 | -16.06772 | 22077 ft | 336 kts | 10° |
| 2026-05-07 10:44 | 29.14899 | -16.06003 | 22086 ft | 336 kts | 10° |
| 2026-05-07 10:44 | 29.17144 | -16.05230 | 22080 ft | 337 kts | 10° |
| 2026-05-07 10:45 | 29.19387 | -16.04457 | 22078 ft | 337 kts | 10° |
| 2026-05-07 10:45 | 29.21630 | -16.03686 | 22076 ft | 336 kts | 10° |
| 2026-05-07 10:45 | 29.23878 | -16.02910 | 22074 ft | 336 kts | 10° |
| 2026-05-07 10:45 | 29.26122 | -16.02138 | 22075 ft | 336 kts | 10° |
| 2026-05-07 10:46 | 29.28363 | -16.01362 | 22076 ft | 336 kts | 10° |
| 2026-05-07 10:46 | 29.30574 | -16.00599 | 22075 ft | 336 kts | 10° |
| 2026-05-07 10:46 | 29.32820 | -15.99827 | 22075 ft | 336 kts | 10° |
| 2026-05-07 10:46 | 29.35063 | -15.99049 | 22078 ft | 337 kts | 10° |
| 2026-05-07 10:47 | 29.37315 | -15.98272 | 22078 ft | 337 kts | 10° |
| 2026-05-07 10:47 | 29.39561 | -15.97494 | 22077 ft | 337 kts | 10° |
| 2026-05-07 10:47 | 29.41807 | -15.96718 | 22077 ft | 337 kts | 10° |
| 2026-05-07 10:47 | 29.44028 | -15.95951 | 22094 ft | 337 kts | 10° |
| 2026-05-07 10:48 | 29.46279 | -15.95171 | 22083 ft | 338 kts | 10° |
| 2026-05-07 10:48 | 29.48525 | -15.94391 | 22082 ft | 338 kts | 10° |
| 2026-05-07 10:48 | 29.50776 | -15.93613 | 22081 ft | 338 kts | 10° |
| 2026-05-07 10:48 | 29.53025 | -15.92831 | 22077 ft | 337 kts | 10° |
| 2026-05-07 10:49 | 29.55274 | -15.92051 | 22078 ft | 337 kts | 10° |
| 2026-05-07 10:49 | 29.57525 | -15.91272 | 22080 ft | 337 kts | 10° |
| 2026-05-07 10:49 | 29.59771 | -15.90491 | 22077 ft | 337 kts | 10° |
| 2026-05-07 10:49 | 29.62021 | -15.89711 | 22079 ft | 337 kts | 10° |
| 2026-05-07 10:50 | 29.64269 | -15.88927 | 22082 ft | 337 kts | 10° |
| 2026-05-07 10:50 | 29.66515 | -15.88146 | 22078 ft | 337 kts | 10° |
| 2026-05-07 10:50 | 29.68762 | -15.87367 | 22081 ft | 337 kts | 10° |
| 2026-05-07 10:50 | 29.71010 | -15.86583 | 22079 ft | 337 kts | 10° |
| 2026-05-07 10:51 | 29.73264 | -15.85799 | 22083 ft | 337 kts | 10° |
| 2026-05-07 10:51 | 29.75482 | -15.85026 | 22081 ft | 337 kts | 10° |
| 2026-05-07 10:51 | 29.77732 | -15.84241 | 22080 ft | 337 kts | 10° |
| 2026-05-07 10:51 | 29.79979 | -15.83460 | 22081 ft | 337 kts | 10° |
| 2026-05-07 10:52 | 29.82225 | -15.82675 | 22078 ft | 337 kts | 10° |
| 2026-05-07 10:52 | 29.84470 | -15.81892 | 22080 ft | 337 kts | 10° |
| 2026-05-07 10:52 | 29.86723 | -15.81105 | 22078 ft | 337 kts | 10° |
| 2026-05-07 10:52 | 29.88966 | -15.80319 | 22078 ft | 337 kts | 10° |
| 2026-05-07 10:53 | 29.91217 | -15.79534 | 22081 ft | 337 kts | 10° |
| 2026-05-07 10:53 | 29.93466 | -15.78755 | 22081 ft | 337 kts | 10° |
| 2026-05-07 10:53 | 29.95714 | -15.77969 | 22081 ft | 337 kts | 10° |
| 2026-05-07 10:53 | 29.97960 | -15.77291 | 22077 ft | 327 kts | 359° |
| 2026-05-07 10:54 | 30.00201 | -15.77195 | 22108 ft | 320 kts | 351° |
| 2026-05-07 10:54 | 30.02372 | -15.77419 | 22094 ft | 315 kts | 343° |
| 2026-05-07 10:54 | 30.04522 | -15.77864 | 22086 ft | 314 kts | 341° |
| 2026-05-07 10:54 | 30.06675 | -15.78343 | 22082 ft | 315 kts | 341° |
| 2026-05-07 10:55 | 30.08842 | -15.78781 | 22079 ft | 316 kts | 343° |
| 2026-05-07 10:55 | 30.11021 | -15.79171 | 22080 ft | 317 kts | 343° |
| 2026-05-07 10:55 | 30.13204 | -15.79566 | 22083 ft | 317 kts | 343° |
| 2026-05-07 10:55 | 30.15384 | -15.79962 | 22082 ft | 317 kts | 343° |
| 2026-05-07 10:56 | 30.17564 | -15.80357 | 22083 ft | 317 kts | 343° |
| 2026-05-07 10:56 | 30.19720 | -15.80751 | 22083 ft | 317 kts | 343° |
| 2026-05-07 10:56 | 30.21901 | -15.81148 | 22083 ft | 317 kts | 343° |
| 2026-05-07 10:56 | 30.24084 | -15.81547 | 22084 ft | 317 kts | 343° |
| 2026-05-07 10:57 | 30.26264 | -15.81944 | 22083 ft | 317 kts | 343° |
| 2026-05-07 10:57 | 30.28453 | -15.82343 | 22095 ft | 317 kts | 343° |
| 2026-05-07 10:57 | 30.30636 | -15.82741 | 22089 ft | 318 kts | 343° |
| 2026-05-07 10:57 | 30.32820 | -15.83140 | 22086 ft | 318 kts | 343° |
| 2026-05-07 10:58 | 30.35003 | -15.83540 | 22085 ft | 318 kts | 343° |
| 2026-05-07 10:58 | 30.37188 | -15.83940 | 22084 ft | 318 kts | 343° |
| 2026-05-07 10:58 | 30.39374 | -15.84338 | 22084 ft | 318 kts | 343° |
| 2026-05-07 10:58 | 30.41537 | -15.84739 | 22083 ft | 318 kts | 343° |
| 2026-05-07 10:59 | 30.43725 | -15.85140 | 22083 ft | 318 kts | 343° |
| 2026-05-07 10:59 | 30.45911 | -15.85534 | 22083 ft | 318 kts | 343° |
| 2026-05-07 10:59 | 30.48095 | -15.85934 | 22083 ft | 318 kts | 343° |
| 2026-05-07 10:59 | 30.50283 | -15.86334 | 22084 ft | 318 kts | 343° |
| 2026-05-07 11:00 | 30.52471 | -15.86735 | 22084 ft | 318 kts | 343° |
| 2026-05-07 11:00 | 30.54653 | -15.87135 | 22108 ft | 318 kts | 343° |
| 2026-05-07 11:00 | 30.56841 | -15.87539 | 22095 ft | 318 kts | 343° |
| 2026-05-07 11:00 | 30.59007 | -15.87936 | 22090 ft | 318 kts | 343° |
| 2026-05-07 11:01 | 30.61197 | -15.88339 | 22087 ft | 319 kts | 343° |
| 2026-05-07 11:01 | 30.63388 | -15.88740 | 22085 ft | 318 kts | 343° |
| 2026-05-07 11:01 | 30.65576 | -15.89144 | 22082 ft | 319 kts | 343° |
| 2026-05-07 11:01 | 30.67768 | -15.89546 | 22081 ft | 318 kts | 343° |
| 2026-05-07 11:02 | 30.69955 | -15.89950 | 22081 ft | 319 kts | 343° |
| 2026-05-07 11:02 | 30.72144 | -15.90352 | 22081 ft | 319 kts | 343° |
| 2026-05-07 11:02 | 30.74335 | -15.90756 | 22082 ft | 319 kts | 343° |
| 2026-05-07 11:02 | 30.76534 | -15.91162 | 22079 ft | 319 kts | 343° |
| 2026-05-07 11:03 | 30.78696 | -15.91559 | 22079 ft | 319 kts | 343° |
| 2026-05-07 11:03 | 30.80890 | -15.91966 | 22093 ft | 319 kts | 343° |
| 2026-05-07 11:03 | 30.83085 | -15.92368 | 22084 ft | 319 kts | 343° |
| 2026-05-07 11:03 | 30.85282 | -15.92776 | 22084 ft | 319 kts | 343° |
| 2026-05-07 11:04 | 30.87424 | -15.93318 | 22085 ft | 306 kts | 329° |
| 2026-05-07 11:04 | 30.89220 | -15.94527 | 22086 ft | 296 kts | 319° |
| 2026-05-07 11:04 | 30.90963 | -15.95821 | 22083 ft | 297 kts | 321° |
| 2026-05-07 11:04 | 30.92817 | -15.96893 | 22083 ft | 303 kts | 328° |
| 2026-05-07 11:05 | 30.94764 | -15.97867 | 22082 ft | 304 kts | 328° |
| 2026-05-07 11:05 | 30.96704 | -15.98860 | 22080 ft | 304 kts | 327° |
| 2026-05-07 11:05 | 30.98619 | -15.99908 | 22081 ft | 304 kts | 326° |
| 2026-05-07 11:05 | 30.99889 | -16.00616 | 22081 ft | 304 kts | 326° |
| 2026-05-07 11:06 | 31.01802 | -16.01682 | 22080 ft | 305 kts | 326° |
| 2026-05-07 11:06 | 31.04345 | -16.03097 | 22080 ft | 305 kts | 326° |
| 2026-05-07 11:06 | 31.05646 | -16.03820 | 22080 ft | 306 kts | 326° |
| 2026-05-07 11:06 | 31.07571 | -16.04888 | 22095 ft | 307 kts | 326° |
| 2026-05-07 11:07 | 31.09473 | -16.05948 | 22085 ft | 307 kts | 326° |
| 2026-05-07 11:07 | 31.11403 | -16.07023 | 22088 ft | 307 kts | 326° |
| 2026-05-07 11:07 | 31.13341 | -16.08104 | 22087 ft | 307 kts | 326° |
| 2026-05-07 11:07 | 31.15275 | -16.09181 | 22081 ft | 307 kts | 326° |
| 2026-05-07 11:08 | 31.17208 | -16.10258 | 22083 ft | 308 kts | 326° |
| 2026-05-07 11:08 | 31.19140 | -16.11335 | 22078 ft | 308 kts | 326° |
| 2026-05-07 11:08 | 31.21048 | -16.12400 | 22078 ft | 308 kts | 326° |
| 2026-05-07 11:08 | 31.22981 | -16.13479 | 22074 ft | 308 kts | 326° |
| 2026-05-07 11:09 | 31.24914 | -16.14559 | 22081 ft | 308 kts | 326° |
| 2026-05-07 11:09 | 31.26848 | -16.15640 | 22081 ft | 308 kts | 326° |
| 2026-05-07 11:09 | 31.28783 | -16.16721 | 22081 ft | 308 kts | 326° |
| 2026-05-07 11:09 | 31.30720 | -16.17805 | 22081 ft | 308 kts | 326° |
| 2026-05-07 11:10 | 31.32660 | -16.18889 | 22088 ft | 308 kts | 326° |
| 2026-05-07 11:10 | 31.34595 | -16.19973 | 22088 ft | 308 kts | 326° |
| 2026-05-07 11:10 | 31.36527 | -16.21056 | 22080 ft | 308 kts | 326° |
| 2026-05-07 11:10 | 31.38438 | -16.22127 | 22086 ft | 308 kts | 326° |
| 2026-05-07 11:11 | 31.40376 | -16.23213 | 22088 ft | 308 kts | 326° |
| 2026-05-07 11:11 | 31.42311 | -16.24299 | 22082 ft | 308 kts | 326° |
| 2026-05-07 11:11 | 31.44248 | -16.25385 | 22078 ft | 308 kts | 326° |
| 2026-05-07 11:11 | 31.46188 | -16.26475 | 22084 ft | 308 kts | 326° |
| 2026-05-07 11:12 | 31.48121 | -16.27560 | 22082 ft | 308 kts | 326° |
| 2026-05-07 11:12 | 31.50036 | -16.28636 | 22081 ft | 308 kts | 326° |
| 2026-05-07 11:12 | 31.51972 | -16.29725 | 22086 ft | 308 kts | 326° |
| 2026-05-07 11:12 | 31.53907 | -16.30814 | 22082 ft | 308 kts | 326° |
| 2026-05-07 11:13 | 31.55842 | -16.31903 | 22085 ft | 308 kts | 326° |
| 2026-05-07 11:13 | 31.57779 | -16.32993 | 22097 ft | 308 kts | 326° |
| 2026-05-07 11:13 | 31.59716 | -16.34087 | 22088 ft | 309 kts | 326° |
| 2026-05-07 11:13 | 31.61657 | -16.35182 | 22079 ft | 309 kts | 326° |
| 2026-05-07 11:14 | 31.63595 | -16.36270 | 22082 ft | 308 kts | 326° |
| 2026-05-07 11:14 | 31.65529 | -16.37360 | 22083 ft | 308 kts | 326° |
| 2026-05-07 11:14 | 31.67456 | -16.38450 | 22087 ft | 307 kts | 326° |
| 2026-05-07 11:14 | 31.69358 | -16.39524 | 22087 ft | 307 kts | 326° |
| 2026-05-07 11:15 | 31.71288 | -16.40612 | 22086 ft | 307 kts | 325° |
| 2026-05-07 11:15 | 31.73221 | -16.41709 | 21813 ft | 314 kts | 326° |
| 2026-05-07 11:15 | 31.75209 | -16.42851 | 21307 ft | 320 kts | 326° |
| 2026-05-07 11:15 | 31.77221 | -16.44019 | 20813 ft | 325 kts | 326° |
| 2026-05-07 11:16 | 31.79268 | -16.45202 | 20329 ft | 330 kts | 327° |
| 2026-05-07 11:16 | 31.81331 | -16.46372 | 20053 ft | 328 kts | 327° |
| 2026-05-07 11:16 | 31.83383 | -16.47534 | 19768 ft | 326 kts | 327° |
| 2026-05-07 11:16 | 31.85426 | -16.48694 | 19483 ft | 325 kts | 327° |
| 2026-05-07 11:17 | 31.87473 | -16.49855 | 19058 ft | 325 kts | 327° |
| 2026-05-07 11:17 | 31.89428 | -16.50951 | 18650 ft | 298 kts | 327° |
| 2026-05-07 11:17 | 31.91250 | -16.51948 | 18178 ft | 287 kts | 327° |
| 2026-05-07 11:17 | 31.93061 | -16.52957 | 17669 ft | 289 kts | 327° |
| 2026-05-07 11:18 | 31.94881 | -16.53984 | 17171 ft | 289 kts | 327° |
| 2026-05-07 11:18 | 31.96694 | -16.55013 | 16700 ft | 290 kts | 327° |
| 2026-05-07 11:18 | 31.98509 | -16.56047 | 16242 ft | 290 kts | 327° |
| 2026-05-07 11:18 | 32.00325 | -16.57080 | 15802 ft | 289 kts | 327° |
| 2026-05-07 11:19 | 32.02136 | -16.58112 | 15375 ft | 288 kts | 328° |
| 2026-05-07 11:19 | 32.03945 | -16.59139 | 14940 ft | 288 kts | 328° |
| 2026-05-07 11:19 | 32.05741 | -16.60162 | 14546 ft | 287 kts | 328° |
| 2026-05-07 11:19 | 32.07536 | -16.61184 | 14146 ft | 286 kts | 328° |
| 2026-05-07 11:20 | 32.09325 | -16.62206 | 13737 ft | 285 kts | 328° |
| 2026-05-07 11:20 | 32.11070 | -16.63202 | 13026 ft | 274 kts | 329° |
| 2026-05-07 11:20 | 32.12759 | -16.64165 | 12255 ft | 266 kts | 329° |
| 2026-05-07 11:20 | 32.14373 | -16.65086 | 11502 ft | 251 kts | 329° |
| 2026-05-07 11:21 | 32.15926 | -16.65976 | 10761 ft | 244 kts | 330° |
| 2026-05-07 11:21 | 32.17455 | -16.66855 | 10031 ft | 248 kts | 331° |
| 2026-05-07 11:21 | 32.19043 | -16.67789 | 9266 ft | 260 kts | 330° |
| 2026-05-07 11:21 | 32.20680 | -16.68757 | 8490 ft | 265 kts | 331° |
| 2026-05-07 11:22 | 32.22324 | -16.69703 | 7743 ft | 266 kts | 332° |
| 2026-05-07 11:22 | 32.23989 | -16.70656 | 6995 ft | 265 kts | 332° |
| 2026-05-07 11:22 | 32.25608 | -16.71581 | 6246 ft | 247 kts | 332° |
| 2026-05-07 11:22 | 32.27105 | -16.72437 | 5472 ft | 232 kts | 332° |
| 2026-05-07 11:23 | 32.28533 | -16.73256 | 4697 ft | 226 kts | 332° |
| 2026-05-07 11:23 | 32.30006 | -16.74102 | 3931 ft | 243 kts | 333° |
| 2026-05-07 11:23 | 32.31544 | -16.74983 | 3427 ft | 244 kts | 332° |
| 2026-05-07 11:23 | 32.33045 | -16.75841 | 3197 ft | 234 kts | 332° |
| 2026-05-07 11:24 | 32.34537 | -16.76700 | 3103 ft | 247 kts | 333° |
| 2026-05-07 11:24 | 32.36112 | -16.77602 | 3045 ft | 249 kts | 332° |
| 2026-05-07 11:24 | 32.37645 | -16.78484 | 3029 ft | 242 kts | 333° |
| 2026-05-07 11:24 | 32.39136 | -16.79334 | 3018 ft | 240 kts | 333° |
| 2026-05-07 11:25 | 32.40634 | -16.80199 | 3012 ft | 238 kts | 332° |
| 2026-05-07 11:25 | 32.42118 | -16.81055 | 3003 ft | 237 kts | 332° |
| 2026-05-07 11:25 | 32.43596 | -16.81902 | 3001 ft | 236 kts | 332° |
| 2026-05-07 11:25 | 32.45078 | -16.82705 | 3030 ft | 231 kts | 342° |
| 2026-05-07 11:26 | 32.46640 | -16.82678 | 3258 ft | 221 kts | 11° |
| 2026-05-07 11:26 | 32.48088 | -16.82146 | 3359 ft | 220 kts | 18° |
| 2026-05-07 11:26 | 32.49565 | -16.81482 | 3100 ft | 232 kts | 20° |
| 2026-05-07 11:26 | 32.51072 | -16.80762 | 2839 ft | 235 kts | 19° |
| 2026-05-07 11:27 | 32.52581 | -16.80426 | 2575 ft | 202 kts | 360° |
| 2026-05-07 11:27 | 32.53923 | -16.80378 | 2335 ft | 193 kts | 359° |
| 2026-05-07 11:27 | 32.55292 | -16.80358 | 2147 ft | 199 kts | 360° |
| 2026-05-07 11:27 | 32.56680 | -16.80332 | 2076 ft | 198 kts | 359° |
| 2026-05-07 11:28 | 32.58055 | -16.80305 | 2033 ft | 196 kts | 360° |
| 2026-05-07 11:28 | 32.59391 | -16.80286 | 2016 ft | 193 kts | 0° |
| 2026-05-07 11:28 | 32.60715 | -16.80287 | 1989 ft | 188 kts | 358° |
| 2026-05-07 11:28 | 32.61990 | -16.80304 | 1894 ft | 176 kts | 358° |
| 2026-05-07 11:29 | 32.63134 | -16.80310 | 1798 ft | 152 kts | 359° |
| 2026-05-07 11:29 | 32.64131 | -16.80315 | 1666 ft | 138 kts | 359° |
| 2026-05-07 11:29 | 32.65124 | -16.80331 | 1526 ft | 146 kts | 358° |
| 2026-05-07 11:29 | 32.66135 | -16.80333 | 1439 ft | 145 kts | 3° |
| 2026-05-07 11:30 | 32.67090 | -16.80148 | 1181 ft | 132 kts | 14° |
| 2026-05-07 11:30 | 32.67906 | -16.79671 | 694 ft | 130 kts | 39° |
| 2026-05-07 11:30 | 32.68519 | -16.78934 | 391 ft | 126 kts | 44° |
| 2026-05-07 11:30 | 32.69132 | -16.78218 | 180 ft | 116 kts | 44° |
| 2026-05-07 11:31 | 32.69451 | -16.77843 | 173 ft | 42 kts | 45° |
| 2026-05-07 11:31 | 32.69698 | -16.77552 | 173 ft | 49 kts | 45° |
| 2026-05-07 11:31 | 32.69905 | -16.77309 | 173 ft | 28 kts | 45° |
| 2026-05-07 11:31 | 32.69947 | -16.77191 | 173 ft | 15 kts | 134° |
| 2026-05-07 11:32 | 32.69770 | -16.77263 | 173 ft | 14 kts | 226° |
| 2026-05-07 11:32 | 32.69702 | -16.77347 | 173 ft | 14 kts | 226° |
| 2026-05-07 11:32 | 32.69616 | -16.77452 | 173 ft | 28 kts | 226° |
| 2026-05-07 11:33 | 32.69495 | -16.77603 | 173 ft | 23 kts | 227° |
| 2026-05-07 11:33 | 32.69395 | -16.77729 | 173 ft | 19 kts | 226° |
| 2026-05-07 11:33 | 32.69317 | -16.77826 | 173 ft | 9 kts | 226° |
| 2026-05-07 11:33 | 32.69282 | -16.77821 | 173 ft | 6 kts | 138° |
| 2026-05-07 11:34 | 32.69258 | -16.77795 | 173 ft | 2 kts | 139° |
| 2026-05-07 11:34 | 32.69257 | -16.77794 | 173 ft | 0 kts | 139° |